sensor_id;sensor_type;location;lat;lon;timestamp;P1;durP1;ratioP1;P2;durP2;ratioP2
24995;SDS011;13016;52.162;21.034;2022-12-07T00:01:17;27.10;;;17.60;;
24995;SDS011;13016;52.162;21.034;2022-12-07T00:03:49;26.80;;;18.00;;
24995;SDS011;13016;52.162;21.034;2022-12-07T00:06:16;27.70;;;16.50;;
24995;SDS011;13016;52.162;21.034;2022-12-07T00:08:42;27.70;;;17.80;;
24995;SDS011;13016;52.162;21.034;2022-12-07T00:11:11;25.60;;;17.20;;
24995;SDS011;13016;52.162;21.034;2022-12-07T00:13:39;29.10;;;18.20;;
24995;SDS011;13016;52.162;21.034;2022-12-07T00:16:12;28.50;;;18.10;;
24995;SDS011;13016;52.162;21.034;2022-12-07T00:18:40;28.50;;;18.10;;
24995;SDS011;13016;52.162;21.034;2022-12-07T00:21:09;28.80;;;17.50;;
24995;SDS011;13016;52.162;21.034;2022-12-07T00:23:37;28.00;;;17.70;;
24995;SDS011;13016;52.162;21.034;2022-12-07T00:26:12;28.60;;;17.70;;
24995;SDS011;13016;52.162;21.034;2022-12-07T00:28:39;27.90;;;17.90;;
24995;SDS011;13016;52.162;21.034;2022-12-07T00:31:06;29.60;;;17.70;;
24995;SDS011;13016;52.162;21.034;2022-12-07T00:33:33;26.20;;;18.20;;
24995;SDS011;13016;52.162;21.034;2022-12-07T00:36:00;30.60;;;17.00;;
24995;SDS011;13016;52.162;21.034;2022-12-07T00:38:27;29.20;;;17.70;;
24995;SDS011;13016;52.162;21.034;2022-12-07T00:40:55;26.10;;;17.60;;
24995;SDS011;13016;52.162;21.034;2022-12-07T00:43:21;23.40;;;16.70;;
24995;SDS011;13016;52.162;21.034;2022-12-07T00:45:46;27.70;;;17.90;;
24995;SDS011;13016;52.162;21.034;2022-12-07T00:48:11;26.70;;;17.70;;
24995;SDS011;13016;52.162;21.034;2022-12-07T00:50:37;31.60;;;18.20;;
24995;SDS011;13016;52.162;21.034;2022-12-07T00:53:02;28.50;;;17.20;;
24995;SDS011;13016;52.162;21.034;2022-12-07T00:55:27;26.50;;;17.30;;
24995;SDS011;13016;52.162;21.034;2022-12-07T00:57:52;30.40;;;18.60;;
24995;SDS011;13016;52.162;21.034;2022-12-07T01:00:18;27.80;;;17.20;;
24995;SDS011;13016;52.162;21.034;2022-12-07T01:02:43;29.70;;;17.60;;
24995;SDS011;13016;52.162;21.034;2022-12-07T01:05:09;26.90;;;18.20;;
24995;SDS011;13016;52.162;21.034;2022-12-07T01:07:34;30.20;;;17.30;;
24995;SDS011;13016;52.162;21.034;2022-12-07T01:09:59;28.10;;;17.50;;
24995;SDS011;13016;52.162;21.034;2022-12-07T01:12:24;29.80;;;18.30;;
24995;SDS011;13016;52.162;21.034;2022-12-07T01:14:50;30.60;;;18.70;;
24995;SDS011;13016;52.162;21.034;2022-12-07T01:17:15;27.40;;;17.30;;
24995;SDS011;13016;52.162;21.034;2022-12-07T01:19:40;27.50;;;17.10;;
24995;SDS011;13016;52.162;21.034;2022-12-07T01:22:05;32.10;;;18.80;;
24995;SDS011;13016;52.162;21.034;2022-12-07T01:24:31;28.80;;;18.40;;
24995;SDS011;13016;52.162;21.034;2022-12-07T01:26:56;28.00;;;17.60;;
24995;SDS011;13016;52.162;21.034;2022-12-07T01:29:21;24.50;;;16.40;;
24995;SDS011;13016;52.162;21.034;2022-12-07T01:31:48;27.60;;;17.00;;
24995;SDS011;13016;52.162;21.034;2022-12-07T01:34:13;24.30;;;16.20;;
24995;SDS011;13016;52.162;21.034;2022-12-07T01:36:39;25.30;;;15.30;;
24995;SDS011;13016;52.162;21.034;2022-12-07T01:39:05;26.00;;;15.40;;
24995;SDS011;13016;52.162;21.034;2022-12-07T01:41:33;23.60;;;14.20;;
24995;SDS011;13016;52.162;21.034;2022-12-07T01:46:48;24.10;;;14.10;;
24995;SDS011;13016;52.162;21.034;2022-12-07T01:52:13;19.90;;;11.50;;
24995;SDS011;13016;52.162;21.034;2022-12-07T01:54:42;20.30;;;11.30;;
24995;SDS011;13016;52.162;21.034;2022-12-07T01:57:09;17.40;;;11.30;;
24995;SDS011;13016;52.162;21.034;2022-12-07T01:59:35;17.50;;;11.40;;
24995;SDS011;13016;52.162;21.034;2022-12-07T02:02:01;15.30;;;10.40;;
24995;SDS011;13016;52.162;21.034;2022-12-07T02:04:35;15.50;;;9.90;;
24995;SDS011;13016;52.162;21.034;2022-12-07T02:07:00;16.50;;;10.10;;
24995;SDS011;13016;52.162;21.034;2022-12-07T02:09:28;15.40;;;9.30;;
24995;SDS011;13016;52.162;21.034;2022-12-07T02:11:56;14.90;;;9.50;;
24995;SDS011;13016;52.162;21.034;2022-12-07T02:14:22;14.60;;;9.30;;
24995;SDS011;13016;52.162;21.034;2022-12-07T02:28:01;12.70;;;7.70;;
24995;SDS011;13016;52.162;21.034;2022-12-07T02:30:53;12.70;;;7.80;;
24995;SDS011;13016;52.162;21.034;2022-12-07T02:33:33;11.90;;;7.70;;
24995;SDS011;13016;52.162;21.034;2022-12-07T02:36:06;10.40;;;7.20;;
24995;SDS011;13016;52.162;21.034;2022-12-07T02:38:55;11.50;;;7.30;;
24995;SDS011;13016;52.162;21.034;2022-12-07T02:41:40;12.60;;;7.20;;
24995;SDS011;13016;52.162;21.034;2022-12-07T02:44:16;11.30;;;7.20;;
24995;SDS011;13016;52.162;21.034;2022-12-07T02:46:47;10.40;;;6.90;;
24995;SDS011;13016;52.162;21.034;2022-12-07T02:49:18;9.20;;;7.00;;
24995;SDS011;13016;52.162;21.034;2022-12-07T02:51:45;12.30;;;6.90;;
24995;SDS011;13016;52.162;21.034;2022-12-07T02:54:11;9.80;;;6.80;;
24995;SDS011;13016;52.162;21.034;2022-12-07T03:02:42;10.00;;;6.90;;
24995;SDS011;13016;52.162;21.034;2022-12-07T03:07:49;9.50;;;6.50;;
24995;SDS011;13016;52.162;21.034;2022-12-07T03:15:47;11.00;;;6.10;;
24995;SDS011;13016;52.162;21.034;2022-12-07T03:18:23;7.10;;;5.40;;
24995;SDS011;13016;52.162;21.034;2022-12-07T03:20:53;8.70;;;5.70;;
24995;SDS011;13016;52.162;21.034;2022-12-07T03:23:22;8.50;;;5.20;;
24995;SDS011;13016;52.162;21.034;2022-12-07T03:25:50;7.50;;;5.00;;
24995;SDS011;13016;52.162;21.034;2022-12-07T03:28:21;6.90;;;4.80;;
24995;SDS011;13016;52.162;21.034;2022-12-07T03:30:56;6.80;;;4.60;;
24995;SDS011;13016;52.162;21.034;2022-12-07T03:33:31;5.40;;;4.30;;
24995;SDS011;13016;52.162;21.034;2022-12-07T03:36:13;7.00;;;4.50;;
24995;SDS011;13016;52.162;21.034;2022-12-07T03:38:50;6.50;;;3.80;;
24995;SDS011;13016;52.162;21.034;2022-12-07T03:41:23;6.20;;;4.10;;
24995;SDS011;13016;52.162;21.034;2022-12-07T03:43:54;5.30;;;4.00;;
24995;SDS011;13016;52.162;21.034;2022-12-07T03:55:02;6.90;;;3.80;;
24995;SDS011;13016;52.162;21.034;2022-12-07T03:57:36;4.10;;;3.30;;
24995;SDS011;13016;52.162;21.034;2022-12-07T04:00:07;4.50;;;3.30;;
24995;SDS011;13016;52.162;21.034;2022-12-07T04:02:37;4.60;;;3.50;;
24995;SDS011;13016;52.162;21.034;2022-12-07T04:05:08;6.00;;;3.90;;
24995;SDS011;13016;52.162;21.034;2022-12-07T04:07:37;5.50;;;3.80;;
24995;SDS011;13016;52.162;21.034;2022-12-07T04:16:19;4.20;;;3.60;;
24995;SDS011;13016;52.162;21.034;2022-12-07T04:18:47;4.50;;;3.40;;
24995;SDS011;13016;52.162;21.034;2022-12-07T04:21:15;5.30;;;3.50;;
24995;SDS011;13016;52.162;21.034;2022-12-07T04:23:43;4.40;;;3.30;;
24995;SDS011;13016;52.162;21.034;2022-12-07T04:26:10;6.50;;;3.20;;
24995;SDS011;13016;52.162;21.034;2022-12-07T04:28:38;5.80;;;3.50;;
24995;SDS011;13016;52.162;21.034;2022-12-07T04:31:06;6.60;;;3.60;;
24995;SDS011;13016;52.162;21.034;2022-12-07T04:33:34;5.50;;;3.60;;
24995;SDS011;13016;52.162;21.034;2022-12-07T04:36:04;4.30;;;3.50;;
24995;SDS011;13016;52.162;21.034;2022-12-07T04:38:32;5.30;;;4.00;;
24995;SDS011;13016;52.162;21.034;2022-12-07T04:40:58;5.30;;;3.80;;
24995;SDS011;13016;52.162;21.034;2022-12-07T04:43:23;5.80;;;3.70;;
24995;SDS011;13016;52.162;21.034;2022-12-07T04:45:48;4.70;;;3.80;;
24995;SDS011;13016;52.162;21.034;2022-12-07T04:48:17;5.30;;;3.90;;
24995;SDS011;13016;52.162;21.034;2022-12-07T04:50:47;5.50;;;3.90;;
24995;SDS011;13016;52.162;21.034;2022-12-07T04:53:15;5.50;;;3.90;;
24995;SDS011;13016;52.162;21.034;2022-12-07T04:55:44;5.40;;;4.20;;
24995;SDS011;13016;52.162;21.034;2022-12-07T04:58:12;5.40;;;3.90;;
24995;SDS011;13016;52.162;21.034;2022-12-07T05:00:41;5.20;;;4.20;;
24995;SDS011;13016;52.162;21.034;2022-12-07T05:03:06;5.50;;;4.20;;
24995;SDS011;13016;52.162;21.034;2022-12-07T05:05:34;6.00;;;4.10;;
24995;SDS011;13016;52.162;21.034;2022-12-07T05:07:59;5.30;;;3.90;;
24995;SDS011;13016;52.162;21.034;2022-12-07T05:10:25;5.70;;;3.80;;
24995;SDS011;13016;52.162;21.034;2022-12-07T05:12:52;6.90;;;4.50;;
24995;SDS011;13016;52.162;21.034;2022-12-07T05:15:18;6.50;;;4.40;;
24995;SDS011;13016;52.162;21.034;2022-12-07T05:17:45;7.20;;;4.80;;
24995;SDS011;13016;52.162;21.034;2022-12-07T05:20:11;6.00;;;4.70;;
24995;SDS011;13016;52.162;21.034;2022-12-07T05:22:39;5.90;;;4.40;;
24995;SDS011;13016;52.162;21.034;2022-12-07T05:25:07;6.10;;;4.80;;
24995;SDS011;13016;52.162;21.034;2022-12-07T05:27:35;7.60;;;4.90;;
24995;SDS011;13016;52.162;21.034;2022-12-07T05:30:03;8.10;;;5.10;;
24995;SDS011;13016;52.162;21.034;2022-12-07T05:32:32;7.40;;;4.80;;
24995;SDS011;13016;52.162;21.034;2022-12-07T05:34:57;7.30;;;5.10;;
24995;SDS011;13016;52.162;21.034;2022-12-07T05:37:23;6.80;;;5.30;;
24995;SDS011;13016;52.162;21.034;2022-12-07T05:39:48;7.90;;;5.30;;
24995;SDS011;13016;52.162;21.034;2022-12-07T05:42:13;7.60;;;5.60;;
24995;SDS011;13016;52.162;21.034;2022-12-07T05:44:39;8.20;;;5.90;;
24995;SDS011;13016;52.162;21.034;2022-12-07T05:47:05;6.90;;;5.40;;
24995;SDS011;13016;52.162;21.034;2022-12-07T05:49:30;8.10;;;5.60;;
24995;SDS011;13016;52.162;21.034;2022-12-07T05:51:56;8.30;;;5.80;;
24995;SDS011;13016;52.162;21.034;2022-12-07T05:54:21;6.60;;;5.50;;
24995;SDS011;13016;52.162;21.034;2022-12-07T05:56:49;7.10;;;5.50;;
24995;SDS011;13016;52.162;21.034;2022-12-07T05:59:14;6.60;;;5.60;;
24995;SDS011;13016;52.162;21.034;2022-12-07T06:01:42;7.60;;;5.30;;
24995;SDS011;13016;52.162;21.034;2022-12-07T06:04:10;10.60;;;5.40;;
24995;SDS011;13016;52.162;21.034;2022-12-07T06:06:35;9.10;;;5.20;;
24995;SDS011;13016;52.162;21.034;2022-12-07T06:09:02;8.20;;;5.80;;
24995;SDS011;13016;52.162;21.034;2022-12-07T06:11:30;7.60;;;5.50;;
24995;SDS011;13016;52.162;21.034;2022-12-07T06:14:03;6.70;;;5.40;;
24995;SDS011;13016;52.162;21.034;2022-12-07T06:16:31;8.90;;;5.80;;
24995;SDS011;13016;52.162;21.034;2022-12-07T06:19:01;6.70;;;4.90;;
24995;SDS011;13016;52.162;21.034;2022-12-07T06:21:29;7.30;;;5.30;;
24995;SDS011;13016;52.162;21.034;2022-12-07T06:23:57;8.60;;;5.70;;
24995;SDS011;13016;52.162;21.034;2022-12-07T06:26:22;7.40;;;5.70;;
24995;SDS011;13016;52.162;21.034;2022-12-07T06:28:47;8.70;;;6.10;;
24995;SDS011;13016;52.162;21.034;2022-12-07T06:31:13;8.10;;;5.20;;
24995;SDS011;13016;52.162;21.034;2022-12-07T06:33:38;7.60;;;5.10;;
24995;SDS011;13016;52.162;21.034;2022-12-07T06:36:03;7.60;;;5.50;;
24995;SDS011;13016;52.162;21.034;2022-12-07T06:38:29;8.00;;;5.50;;
24995;SDS011;13016;52.162;21.034;2022-12-07T06:40:54;7.20;;;5.10;;
24995;SDS011;13016;52.162;21.034;2022-12-07T06:43:22;7.70;;;5.50;;
24995;SDS011;13016;52.162;21.034;2022-12-07T06:45:47;8.70;;;5.60;;
24995;SDS011;13016;52.162;21.034;2022-12-07T06:48:12;8.10;;;5.20;;
24995;SDS011;13016;52.162;21.034;2022-12-07T06:50:40;9.10;;;5.00;;
24995;SDS011;13016;52.162;21.034;2022-12-07T06:53:08;7.90;;;5.10;;
24995;SDS011;13016;52.162;21.034;2022-12-07T06:55:38;9.80;;;5.90;;
24995;SDS011;13016;52.162;21.034;2022-12-07T06:58:03;8.30;;;5.20;;
24995;SDS011;13016;52.162;21.034;2022-12-07T07:00:31;8.30;;;5.80;;
24995;SDS011;13016;52.162;21.034;2022-12-07T07:03:00;7.90;;;5.80;;
24995;SDS011;13016;52.162;21.034;2022-12-07T07:05:29;9.80;;;5.60;;
24995;SDS011;13016;52.162;21.034;2022-12-07T07:07:56;8.50;;;5.10;;
24995;SDS011;13016;52.162;21.034;2022-12-07T07:10:24;8.60;;;5.70;;
24995;SDS011;13016;52.162;21.034;2022-12-07T07:12:52;8.20;;;5.90;;
24995;SDS011;13016;52.162;21.034;2022-12-07T07:15:20;8.80;;;5.20;;
24995;SDS011;13016;52.162;21.034;2022-12-07T07:17:48;7.20;;;5.50;;
24995;SDS011;13016;52.162;21.034;2022-12-07T07:20:32;7.70;;;5.80;;
24995;SDS011;13016;52.162;21.034;2022-12-07T07:23:00;7.90;;;5.50;;
24995;SDS011;13016;52.162;21.034;2022-12-07T07:25:28;8.80;;;6.00;;
24995;SDS011;13016;52.162;21.034;2022-12-07T07:27:54;6.80;;;5.00;;
24995;SDS011;13016;52.162;21.034;2022-12-07T07:30:19;8.80;;;5.30;;
24995;SDS011;13016;52.162;21.034;2022-12-07T07:32:45;7.50;;;5.70;;
24995;SDS011;13016;52.162;21.034;2022-12-07T07:35:10;8.40;;;5.20;;
24995;SDS011;13016;52.162;21.034;2022-12-07T07:37:35;7.10;;;5.30;;
24995;SDS011;13016;52.162;21.034;2022-12-07T07:40:00;9.50;;;5.00;;
24995;SDS011;13016;52.162;21.034;2022-12-07T07:42:26;8.50;;;5.40;;
24995;SDS011;13016;52.162;21.034;2022-12-07T07:44:51;6.90;;;5.20;;
24995;SDS011;13016;52.162;21.034;2022-12-07T07:47:16;8.20;;;5.00;;
24995;SDS011;13016;52.162;21.034;2022-12-07T07:49:41;7.00;;;4.80;;
24995;SDS011;13016;52.162;21.034;2022-12-07T07:52:07;7.20;;;4.90;;
24995;SDS011;13016;52.162;21.034;2022-12-07T07:54:32;7.40;;;5.40;;
24995;SDS011;13016;52.162;21.034;2022-12-07T07:56:57;6.30;;;4.40;;
24995;SDS011;13016;52.162;21.034;2022-12-07T07:59:23;6.50;;;4.60;;
24995;SDS011;13016;52.162;21.034;2022-12-07T08:01:48;6.30;;;4.70;;
24995;SDS011;13016;52.162;21.034;2022-12-07T08:04:13;7.40;;;5.10;;
24995;SDS011;13016;52.162;21.034;2022-12-07T08:06:39;6.50;;;4.80;;
24995;SDS011;13016;52.162;21.034;2022-12-07T08:09:04;6.40;;;4.10;;
24995;SDS011;13016;52.162;21.034;2022-12-07T08:11:29;5.80;;;4.30;;
24995;SDS011;13016;52.162;21.034;2022-12-07T08:13:54;7.60;;;4.90;;
24995;SDS011;13016;52.162;21.034;2022-12-07T08:16:20;5.70;;;4.60;;
24995;SDS011;13016;52.162;21.034;2022-12-07T08:18:45;8.60;;;5.20;;
24995;SDS011;13016;52.162;21.034;2022-12-07T08:21:11;6.10;;;4.60;;
24995;SDS011;13016;52.162;21.034;2022-12-07T08:23:38;6.30;;;4.80;;
24995;SDS011;13016;52.162;21.034;2022-12-07T08:26:05;6.20;;;4.50;;
24995;SDS011;13016;52.162;21.034;2022-12-07T08:28:35;7.60;;;5.20;;
24995;SDS011;13016;52.162;21.034;2022-12-07T08:31:05;7.90;;;5.30;;
24995;SDS011;13016;52.162;21.034;2022-12-07T08:33:39;8.30;;;5.20;;
24995;SDS011;13016;52.162;21.034;2022-12-07T08:36:06;11.10;;;5.40;;
24995;SDS011;13016;52.162;21.034;2022-12-07T08:38:36;9.60;;;5.70;;
24995;SDS011;13016;52.162;21.034;2022-12-07T08:41:04;9.20;;;6.20;;
24995;SDS011;13016;52.162;21.034;2022-12-07T08:43:31;9.50;;;5.70;;
24995;SDS011;13016;52.162;21.034;2022-12-07T08:46:15;8.70;;;5.80;;
24995;SDS011;13016;52.162;21.034;2022-12-07T08:48:56;9.40;;;6.10;;
24995;SDS011;13016;52.162;21.034;2022-12-07T08:51:26;8.70;;;6.40;;
24995;SDS011;13016;52.162;21.034;2022-12-07T08:53:52;10.20;;;6.50;;
24995;SDS011;13016;52.162;21.034;2022-12-07T08:56:22;10.40;;;6.20;;
24995;SDS011;13016;52.162;21.034;2022-12-07T08:58:47;9.20;;;6.20;;
24995;SDS011;13016;52.162;21.034;2022-12-07T09:01:13;10.80;;;6.20;;
24995;SDS011;13016;52.162;21.034;2022-12-07T09:03:39;8.80;;;6.00;;
24995;SDS011;13016;52.162;21.034;2022-12-07T09:06:04;8.00;;;6.00;;
24995;SDS011;13016;52.162;21.034;2022-12-07T09:08:31;11.20;;;6.60;;
24995;SDS011;13016;52.162;21.034;2022-12-07T09:11:02;10.70;;;6.50;;
24995;SDS011;13016;52.162;21.034;2022-12-07T09:13:28;9.90;;;6.80;;
24995;SDS011;13016;52.162;21.034;2022-12-07T09:15:53;12.50;;;8.80;;
24995;SDS011;13016;52.162;21.034;2022-12-07T09:18:18;13.40;;;8.30;;
24995;SDS011;13016;52.162;21.034;2022-12-07T09:20:43;11.90;;;7.70;;
24995;SDS011;13016;52.162;21.034;2022-12-07T09:23:09;11.60;;;7.70;;
24995;SDS011;13016;52.162;21.034;2022-12-07T09:25:34;11.80;;;7.80;;
24995;SDS011;13016;52.162;21.034;2022-12-07T09:28:00;11.60;;;7.30;;
24995;SDS011;13016;52.162;21.034;2022-12-07T09:33:13;10.90;;;7.90;;
24995;SDS011;13016;52.162;21.034;2022-12-07T09:35:46;11.20;;;7.60;;
24995;SDS011;13016;52.162;21.034;2022-12-07T09:38:13;10.30;;;7.60;;
24995;SDS011;13016;52.162;21.034;2022-12-07T09:40:39;11.70;;;7.50;;
24995;SDS011;13016;52.162;21.034;2022-12-07T09:43:11;11.60;;;7.80;;
24995;SDS011;13016;52.162;21.034;2022-12-07T09:45:42;14.50;;;8.00;;
24995;SDS011;13016;52.162;21.034;2022-12-07T09:48:19;14.80;;;8.50;;
24995;SDS011;13016;52.162;21.034;2022-12-07T09:50:47;13.00;;;7.70;;
24995;SDS011;13016;52.162;21.034;2022-12-07T09:53:24;11.40;;;8.10;;
24995;SDS011;13016;52.162;21.034;2022-12-07T09:55:53;12.70;;;8.20;;
24995;SDS011;13016;52.162;21.034;2022-12-07T09:58:26;13.10;;;8.30;;
24995;SDS011;13016;52.162;21.034;2022-12-07T10:00:55;14.40;;;8.10;;
24995;SDS011;13016;52.162;21.034;2022-12-07T10:03:26;12.40;;;7.70;;
24995;SDS011;13016;52.162;21.034;2022-12-07T10:05:52;15.90;;;8.10;;
24995;SDS011;13016;52.162;21.034;2022-12-07T10:08:18;14.00;;;8.60;;
24995;SDS011;13016;52.162;21.034;2022-12-07T10:10:44;13.70;;;7.60;;
24995;SDS011;13016;52.162;21.034;2022-12-07T10:13:11;14.20;;;8.40;;
24995;SDS011;13016;52.162;21.034;2022-12-07T10:15:46;12.60;;;7.80;;
24995;SDS011;13016;52.162;21.034;2022-12-07T10:18:27;15.40;;;7.80;;
24995;SDS011;13016;52.162;21.034;2022-12-07T10:21:04;12.90;;;7.70;;
24995;SDS011;13016;52.162;21.034;2022-12-07T10:24:03;12.40;;;7.40;;
24995;SDS011;13016;52.162;21.034;2022-12-07T10:26:36;12.70;;;7.70;;
24995;SDS011;13016;52.162;21.034;2022-12-07T10:31:36;12.20;;;7.90;;
24995;SDS011;13016;52.162;21.034;2022-12-07T10:34:12;11.40;;;7.80;;
24995;SDS011;13016;52.162;21.034;2022-12-07T10:36:47;15.90;;;10.30;;
24995;SDS011;13016;52.162;21.034;2022-12-07T10:39:14;13.50;;;7.90;;
24995;SDS011;13016;52.162;21.034;2022-12-07T10:41:57;13.40;;;7.90;;
24995;SDS011;13016;52.162;21.034;2022-12-07T10:44:25;12.90;;;8.10;;
24995;SDS011;13016;52.162;21.034;2022-12-07T10:49:31;10.90;;;7.00;;
24995;SDS011;13016;52.162;21.034;2022-12-07T10:52:04;11.30;;;7.20;;
24995;SDS011;13016;52.162;21.034;2022-12-07T10:58:02;11.70;;;8.00;;
24995;SDS011;13016;52.162;21.034;2022-12-07T11:00:30;11.90;;;7.30;;
24995;SDS011;13016;52.162;21.034;2022-12-07T11:03:07;11.20;;;7.00;;
24995;SDS011;13016;52.162;21.034;2022-12-07T11:11:46;9.40;;;7.10;;
24995;SDS011;13016;52.162;21.034;2022-12-07T11:14:24;9.60;;;6.60;;
24995;SDS011;13016;52.162;21.034;2022-12-07T11:17:06;11.00;;;7.20;;
24995;SDS011;13016;52.162;21.034;2022-12-07T11:19:53;9.80;;;7.10;;
24995;SDS011;13016;52.162;21.034;2022-12-07T11:33:44;9.70;;;7.20;;
24995;SDS011;13016;52.162;21.034;2022-12-07T11:41:10;11.00;;;7.00;;
24995;SDS011;13016;52.162;21.034;2022-12-07T11:43:37;9.60;;;6.90;;
24995;SDS011;13016;52.162;21.034;2022-12-07T11:46:19;9.50;;;7.00;;
24995;SDS011;13016;52.162;21.034;2022-12-07T11:48:52;10.60;;;7.50;;
24995;SDS011;13016;52.162;21.034;2022-12-07T11:51:20;8.60;;;7.00;;
24995;SDS011;13016;52.162;21.034;2022-12-07T11:59:29;9.30;;;7.10;;
24995;SDS011;13016;52.162;21.034;2022-12-07T12:06:50;10.20;;;7.00;;
24995;SDS011;13016;52.162;21.034;2022-12-07T12:33:46;11.30;;;7.40;;
24995;SDS011;13016;52.162;21.034;2022-12-07T12:46:54;10.60;;;7.50;;
24995;SDS011;13016;52.162;21.034;2022-12-07T12:51:48;14.50;;;11.30;;
24995;SDS011;13016;52.162;21.034;2022-12-07T12:56:44;8.90;;;6.60;;
24995;SDS011;13016;52.162;21.034;2022-12-07T13:01:49;8.60;;;6.80;;
24995;SDS011;13016;52.162;21.034;2022-12-07T13:04:17;8.20;;;6.40;;
24995;SDS011;13016;52.162;21.034;2022-12-07T13:06:49;7.60;;;5.70;;
24995;SDS011;13016;52.162;21.034;2022-12-07T13:09:18;8.00;;;6.20;;
